createdAt,value
2018-10-19T00:00:11.886Z,96.98
2018-10-19T00:01:11.858Z,96.88
2018-10-19T00:02:11.884Z,97.29
2018-10-19T00:03:11.951Z,97.29
2018-10-19T00:04:11.840Z,97.24
2018-10-19T00:05:11.891Z,97.19
2018-10-19T00:06:11.841Z,97.29
2018-10-19T00:07:11.827Z,96.78
2018-10-19T00:08:11.798Z,96.98
2018-10-19T00:09:11.882Z,96.98
2018-10-19T00:10:11.787Z,96.67
2018-10-19T00:11:11.812Z,96.82
2018-10-19T00:12:11.788Z,97.19
2018-10-19T00:13:11.772Z,97.29
2018-10-19T00:14:11.772Z,97.39
2018-10-19T00:15:11.732Z,97.23
2018-10-19T00:16:11.702Z,97.19
2018-10-19T00:17:11.830Z,97.19
2018-10-19T00:18:11.729Z,97.29
2018-10-19T00:19:11.686Z,97.13
2018-10-19T00:20:11.650Z,97.08
2018-10-19T00:21:11.694Z,97.03
2018-10-19T00:22:12.173Z,96.92
2018-10-19T00:23:11.717Z,96.92
2018-10-19T00:24:11.624Z,97.13
2018-10-19T00:25:11.612Z,97.44
2018-10-19T00:26:11.591Z,97.54
2018-10-19T00:27:11.620Z,97.54
2018-10-19T00:28:11.595Z,97.23
2018-10-19T00:29:11.682Z,97.23
2018-10-19T00:30:11.588Z,97.33
2018-10-19T00:31:11.554Z,96.97
2018-10-19T00:32:11.525Z,96.77
2018-10-19T00:33:11.629Z,97.58
2018-10-19T00:34:11.510Z,97.89
2018-10-19T00:35:11.576Z,97.48
2018-10-19T00:36:11.476Z,97.48
2018-10-19T00:37:11.474Z,97.58
2018-10-19T00:38:11.462Z,97.73
2018-10-19T00:39:11.556Z,98.35
2018-10-19T00:40:11.440Z,97.89
2018-10-19T00:41:11.510Z,97.94
2018-10-19T00:42:11.445Z,97.73
2018-10-19T00:43:11.413Z,98.14
2018-10-19T00:44:11.428Z,97.78
2018-10-19T00:46:31.533Z,98.19
2018-10-19T00:47:32.495Z,98.50
2018-10-19T00:48:32.486Z,98.70
2018-10-19T00:49:32.541Z,98.76
2018-10-19T00:50:32.474Z,98.66
2018-10-19T00:51:32.453Z,98.70
2018-10-19T00:52:32.459Z,98.70
2018-10-19T00:53:32.468Z,98.70
2018-10-19T00:54:32.462Z,99.01
2018-10-19T00:55:32.435Z,99.42
2018-10-19T00:56:32.462Z,99.21
2018-10-19T00:57:32.418Z,99.42
2018-10-19T00:58:32.386Z,99.89
2018-10-19T00:59:32.416Z,99.93
2018-10-19T01:00:32.391Z,99.21
2018-10-19T01:01:32.363Z,99.68
2018-10-19T01:02:32.350Z,99.58
2018-10-19T01:03:32.379Z,99.68
2018-10-19T01:04:32.330Z,99.68
2018-10-19T01:05:32.336Z,99.79
2018-10-19T01:06:32.292Z,99.58
2018-10-19T01:07:32.324Z,99.63
2018-10-19T01:08:32.300Z,99.83
2018-10-19T01:09:32.285Z,99.79
2018-10-19T01:10:32.264Z,99.63
2018-10-19T01:11:32.259Z,99.83
2018-10-19T01:12:32.241Z,99.63
2018-10-19T01:13:32.235Z,99.42
2018-10-19T01:14:32.264Z,99.38
2018-10-19T01:15:32.199Z,99.58
2018-10-19T01:16:32.191Z,99.73
2018-10-19T01:17:32.188Z,99.42
2018-10-19T01:18:32.167Z,99.27
2018-10-19T01:19:32.183Z,99.42
2018-10-19T01:20:32.150Z,99.38
2018-10-19T01:21:32.153Z,99.27
2018-10-19T01:22:32.150Z,99.38
2018-10-19T01:23:32.139Z,99.48
2018-10-19T01:24:32.118Z,99.38
2018-10-19T01:25:32.139Z,99.38
2018-10-19T01:26:32.099Z,99.07
2018-10-19T01:27:32.070Z,99.27
2018-10-19T01:28:32.054Z,99.27
2018-10-19T01:29:32.067Z,99.38
2018-10-19T01:30:32.069Z,99.48
2018-10-19T01:31:32.031Z,99.42
2018-10-19T01:32:32.013Z,99.58
2018-10-19T01:33:32.002Z,99.52
2018-10-19T01:34:31.982Z,99.73
2018-10-19T01:35:32.005Z,99.83
2018-10-19T01:36:31.976Z,99.73
2018-10-19T01:37:31.962Z,99.52
2018-10-19T01:38:32.844Z,99.63
2018-10-19T01:39:31.943Z,99.52
2018-10-19T01:40:31.945Z,99.63
2018-10-19T01:41:31.923Z,99.32
2018-10-19T01:42:31.908Z,99.57
2018-10-19T01:43:31.886Z,99.32
2018-10-19T01:44:31.877Z,99.57
2018-10-19T01:45:31.889Z,99.52
2018-10-19T01:46:31.884Z,99.67
2018-10-19T01:47:31.845Z,99.77
2018-10-19T01:48:31.841Z,99.47
2018-10-19T01:49:31.828Z,99.77
2018-10-19T01:50:31.837Z,99.42
2018-10-19T01:51:31.807Z,99.37
2018-10-19T01:52:31.800Z,99.88
2018-10-19T01:53:31.792Z,99.88
2018-10-19T01:54:31.763Z,99.57
2018-10-19T01:55:31.791Z,99.98
2018-10-19T01:56:31.789Z,99.98
2018-10-19T01:57:31.772Z,99.88
2018-10-19T01:58:31.763Z,99.99
2018-10-19T01:59:31.728Z,99.99
2018-10-19T02:00:31.734Z,99.99
2018-10-19T02:01:31.884Z,99.99
2018-10-19T02:02:31.700Z,99.99
2018-10-19T02:03:31.694Z,99.99
2018-10-19T02:04:31.685Z,99.99
2018-10-19T02:05:31.695Z,99.99
2018-10-19T02:06:31.655Z,99.99
2018-10-19T02:07:31.668Z,99.99
2018-10-19T02:08:31.650Z,99.99
2018-10-19T02:09:31.611Z,99.99
2018-10-19T02:10:31.633Z,99.99
2018-10-19T02:11:31.600Z,99.99
2018-10-19T02:12:31.594Z,99.99
2018-10-19T02:13:31.581Z,99.99
2018-10-19T02:14:31.570Z,99.99
2018-10-19T02:15:31.578Z,99.99
2018-10-19T02:16:31.583Z,99.99
2018-10-19T02:17:31.545Z,99.99
2018-10-19T02:18:31.517Z,99.99
2018-10-19T02:19:31.492Z,99.99
2018-10-19T02:20:31.512Z,99.99
2018-10-19T02:21:31.525Z,99.99
2018-10-19T02:22:31.476Z,99.99
2018-10-19T02:23:31.457Z,99.83
2018-10-19T02:24:31.444Z,99.93
2018-10-19T02:25:31.470Z,99.63
2018-10-19T02:26:31.442Z,99.83
2018-10-19T02:27:31.416Z,99.58
2018-10-19T02:28:31.402Z,99.52
2018-10-19T02:29:31.406Z,99.52
2018-10-19T02:30:31.401Z,99.63
2018-10-19T02:31:31.416Z,99.63
2018-10-19T02:32:31.401Z,99.93
2018-10-19T02:33:31.349Z,99.63
2018-10-19T02:34:31.365Z,99.83
2018-10-19T02:35:31.349Z,99.83
2018-10-19T02:36:31.355Z,99.52
2018-10-19T02:37:31.297Z,99.52
2018-10-19T02:38:31.284Z,99.73
2018-10-19T02:39:31.285Z,99.42
2018-10-19T02:40:31.299Z,99.32
2018-10-19T02:41:31.268Z,99.32
2018-10-19T02:42:31.246Z,99.73
2018-10-19T02:43:31.239Z,99.21
2018-10-19T02:44:31.225Z,99.52
2018-10-19T02:45:31.241Z,99.52
2018-10-19T02:47:40.439Z,99.11
2018-10-19T02:48:41.433Z,99.11
2018-10-19T02:49:41.420Z,99.42
2018-10-19T02:50:41.433Z,99.52
2018-10-19T02:51:41.412Z,99.32
2018-10-19T02:52:41.376Z,99.11
2018-10-19T02:53:41.376Z,99.32
2018-10-19T02:54:41.383Z,99.32
2018-10-19T02:55:41.357Z,99.32
2018-10-19T02:56:41.348Z,99.21
2018-10-19T02:57:41.336Z,99.11
2018-10-19T02:58:41.364Z,99.32
2018-10-19T02:59:41.309Z,99.32
2018-10-19T03:00:41.323Z,99.42
2018-10-19T03:01:41.316Z,99.11
2018-10-19T03:02:41.309Z,99.32
2018-10-19T03:03:41.271Z,99.52
2018-10-19T03:04:41.294Z,99.32
2018-10-19T03:05:41.276Z,99.32
2018-10-19T03:06:41.230Z,99.11
2018-10-19T03:07:41.217Z,99.52
2018-10-19T03:08:41.211Z,99.27
2018-10-19T03:09:41.192Z,99.32
2018-10-19T03:10:41.211Z,99.21
2018-10-19T03:11:41.215Z,98.80
2018-10-19T03:12:41.164Z,99.01
2018-10-19T03:13:41.152Z,99.01
2018-10-19T03:14:41.137Z,98.91
2018-10-19T03:15:41.156Z,98.91
2018-10-19T03:16:41.124Z,99.01
2018-10-19T03:17:41.149Z,98.91
2018-10-19T03:18:41.144Z,99.11
2018-10-19T03:19:41.106Z,98.91
2018-10-19T03:20:41.101Z,99.21
2018-10-19T03:21:41.084Z,98.91
2018-10-19T03:22:41.054Z,99.01
2018-10-19T03:23:41.052Z,98.91
2018-10-19T03:24:41.064Z,98.80
2018-10-19T03:25:41.670Z,98.60
2018-10-19T03:26:41.028Z,98.29
2018-10-19T03:27:41.028Z,98.80
2018-10-19T03:28:40.985Z,98.70
2018-10-19T03:29:40.984Z,98.80
2018-10-19T03:30:40.997Z,99.01
2018-10-19T03:31:40.988Z,98.60
2018-10-19T03:32:40.945Z,98.70
2018-10-19T03:33:40.942Z,98.91
2018-10-19T03:34:40.934Z,98.70
2018-10-19T03:35:40.920Z,98.70
2018-10-19T03:36:40.965Z,98.70
2018-10-19T03:37:40.905Z,98.50
2018-10-19T03:38:40.883Z,98.60
2018-10-19T03:39:40.879Z,98.70
2018-10-19T03:40:40.875Z,99.05
2018-10-19T03:41:40.868Z,98.75
2018-10-19T03:42:40.857Z,98.96
2018-10-19T03:43:40.833Z,98.75
2018-10-19T03:44:40.827Z,99.05
2018-10-19T03:45:40.812Z,99.16
2018-10-19T03:46:40.829Z,98.96
2018-10-19T03:47:40.791Z,98.96
2018-10-19T03:48:40.773Z,98.91
2018-10-19T03:49:40.782Z,99.01
2018-10-19T03:50:40.753Z,99.05
2018-10-19T03:51:40.763Z,98.96
2018-10-19T03:52:40.769Z,98.85
2018-10-19T03:53:40.735Z,98.96
2018-10-19T03:54:40.744Z,99.05
2018-10-19T03:55:40.715Z,99.16
2018-10-19T03:56:40.702Z,99.37
2018-10-19T03:57:40.681Z,99.16
2018-10-19T03:58:40.660Z,99.41
2018-10-19T03:59:40.669Z,99.51
2018-10-19T04:00:40.636Z,99.16
2018-10-19T04:01:40.642Z,99.37
2018-10-19T04:02:40.624Z,99.47
2018-10-19T04:03:40.728Z,99.31
2018-10-19T04:04:40.601Z,99.16
2018-10-19T04:05:40.589Z,99.57
2018-10-19T04:06:40.601Z,99.37
2018-10-19T04:07:40.588Z,99.37
2018-10-19T04:08:40.552Z,99.37
2018-10-19T04:09:40.566Z,99.37
2018-10-19T04:10:40.549Z,99.31
2018-10-19T04:11:40.555Z,99.41
2018-10-19T04:12:40.525Z,99.21
2018-10-19T04:13:40.526Z,99.21
2018-10-19T04:14:40.496Z,99.16
2018-10-19T04:15:40.485Z,99.41
2018-10-19T04:16:40.489Z,99.21
2018-10-19T04:17:40.477Z,99.41
2018-10-19T04:18:40.455Z,99.62
2018-10-19T04:19:40.426Z,99.41
2018-10-19T04:20:40.416Z,99.57
2018-10-19T04:21:40.424Z,99.51
2018-10-19T04:22:40.398Z,99.41
2018-10-19T04:23:40.406Z,99.62
2018-10-19T04:24:40.379Z,99.21
2018-10-19T04:25:40.371Z,99.10
2018-10-19T04:26:40.378Z,99.31
2018-10-19T04:27:40.434Z,99.00
2018-10-19T04:28:40.339Z,99.00
2018-10-19T04:29:40.321Z,98.49
2018-10-19T04:30:40.330Z,98.38
2018-10-19T04:31:40.328Z,98.79
2018-10-19T04:32:40.295Z,99.00
2018-10-19T04:33:40.284Z,98.69
2018-10-19T04:34:40.275Z,98.69
2018-10-19T04:35:40.279Z,98.79
2018-10-19T04:36:40.275Z,98.90
2018-10-19T04:37:40.260Z,99.00
2018-10-19T04:38:40.234Z,98.59
2018-10-19T04:39:40.242Z,98.69
2018-10-19T04:40:40.209Z,98.59
2018-10-19T04:41:40.334Z,98.69
2018-10-19T04:42:40.193Z,98.69
2018-10-19T04:43:40.168Z,98.79
2018-10-19T04:44:40.169Z,98.79
2018-10-19T04:45:40.180Z,98.59
2018-10-19T04:46:40.165Z,99.00
2018-10-19T04:48:50.452Z,98.59
2018-10-19T04:49:51.385Z,98.79
2018-10-19T04:50:51.374Z,98.84
2018-10-19T04:51:51.407Z,98.94
2018-10-19T04:52:51.367Z,99.00
2018-10-19T04:53:51.479Z,98.84
2018-10-19T04:54:51.326Z,98.69
2018-10-19T04:55:51.332Z,98.63
2018-10-19T04:56:51.327Z,98.84
2018-10-19T04:57:51.295Z,98.84
2018-10-19T04:58:51.307Z,98.84
2018-10-19T04:59:51.329Z,98.63
2018-10-19T05:00:51.258Z,98.63
2018-10-19T05:01:51.265Z,99.05
2018-10-19T05:02:51.273Z,99.05
2018-10-19T05:03:51.214Z,98.43
2018-10-19T05:04:51.313Z,98.43
2018-10-19T05:05:51.294Z,98.43
2018-10-19T05:06:51.214Z,98.63
2018-10-19T05:07:51.201Z,98.53
2018-10-19T05:08:51.162Z,98.84
2018-10-19T05:09:51.162Z,98.74
2018-10-19T05:10:51.167Z,99.05
2018-10-19T05:11:51.167Z,98.94
2018-10-19T05:12:51.154Z,99.15
2018-10-19T05:13:51.130Z,98.58
2018-10-19T05:14:51.107Z,99.05
2018-10-19T05:15:51.090Z,98.94
2018-10-19T05:16:51.111Z,99.09
2018-10-19T05:17:51.073Z,99.09
2018-10-19T05:18:51.058Z,99.19
2018-10-19T05:19:51.039Z,98.99
2018-10-19T05:20:51.037Z,99.30
2018-10-19T05:21:51.029Z,99.09
2018-10-19T05:22:51.034Z,99.19
2018-10-19T05:23:51.003Z,99.19
2018-10-19T05:24:51.150Z,99.60
2018-10-19T05:25:50.981Z,99.30
2018-10-19T05:26:50.968Z,99.40
2018-10-19T05:27:51.017Z,99.30
2018-10-19T05:28:50.947Z,99.30
2018-10-19T05:29:51.045Z,99.60
2018-10-19T05:30:50.937Z,99.30
2018-10-19T05:31:50.912Z,99.51
2018-10-19T05:32:50.946Z,99.71
2018-10-19T05:33:50.914Z,99.40
2018-10-19T05:34:50.913Z,99.60
2018-10-19T05:35:50.877Z,99.51
2018-10-19T05:36:50.885Z,99.51
2018-10-19T05:37:50.871Z,99.34
2018-10-19T05:38:50.849Z,99.65
2018-10-19T05:39:50.854Z,99.44
2018-10-19T05:40:50.821Z,99.65
2018-10-19T05:41:50.847Z,99.40
2018-10-19T05:42:50.813Z,99.60
2018-10-19T05:43:50.813Z,99.55
2018-10-19T05:44:50.830Z,99.55
2018-10-19T05:45:50.796Z,99.44
2018-10-19T05:46:50.753Z,99.99
2018-10-19T05:47:50.772Z,99.91
2018-10-19T05:48:50.775Z,99.91
2018-10-19T05:49:50.763Z,99.71
2018-10-19T05:50:50.700Z,99.99
2018-10-19T05:51:50.709Z,99.71
2018-10-19T05:52:51.596Z,99.99
2018-10-19T05:53:50.717Z,99.99
2018-10-19T05:54:50.698Z,99.76
2018-10-19T05:55:50.674Z,99.86
2018-10-19T05:56:50.686Z,99.81
2018-10-19T05:57:50.642Z,99.44
2018-10-19T05:58:50.653Z,99.51
2018-10-19T05:59:50.637Z,99.71
2018-10-19T06:00:50.590Z,99.60
2018-10-19T06:01:50.620Z,99.71
2018-10-19T06:02:50.586Z,99.60
2018-10-19T06:03:50.585Z,99.34
2018-10-19T06:04:50.561Z,99.55
2018-10-19T06:05:50.571Z,99.34
2018-10-19T06:06:50.529Z,99.24
2018-10-19T06:07:50.558Z,99.34
2018-10-19T06:08:50.541Z,99.04
2018-10-19T06:09:50.531Z,99.24
2018-10-19T06:10:50.484Z,99.34
2018-10-19T06:11:50.477Z,99.14
2018-10-19T06:12:50.459Z,99.24
2018-10-19T06:13:50.468Z,99.14
2018-10-19T06:14:50.434Z,99.55
2018-10-19T06:15:50.433Z,99.34
2018-10-19T06:16:50.427Z,99.04
2018-10-19T06:17:50.400Z,98.93
2018-10-19T06:18:50.411Z,99.39
2018-10-19T06:19:50.392Z,99.18
2018-10-19T06:20:50.372Z,99.55
2018-10-19T06:21:50.362Z,99.39
2018-10-19T06:22:50.350Z,99.34
2018-10-19T06:23:50.357Z,99.39
2018-10-19T06:24:50.326Z,99.39
2018-10-19T06:25:50.348Z,99.65
2018-10-19T06:26:50.304Z,99.34
2018-10-19T06:27:50.296Z,99.34
2018-10-19T06:28:50.299Z,99.55
2018-10-19T06:29:50.274Z,99.34
2018-10-19T06:30:50.289Z,99.24
2018-10-19T06:31:50.256Z,98.62
2018-10-19T06:32:50.258Z,98.72
2018-10-19T06:33:50.306Z,98.93
2018-10-19T06:34:50.245Z,98.93
2018-10-19T06:35:50.215Z,99.14
2018-10-19T06:36:50.192Z,99.24
2018-10-19T06:37:50.226Z,98.72
2018-10-19T06:38:50.205Z,98.47
2018-10-19T06:39:50.165Z,98.42
2018-10-19T06:40:50.248Z,97.90
2018-10-19T06:41:50.147Z,98.00
2018-10-19T06:42:50.128Z,98.21
2018-10-19T06:43:50.142Z,98.00
2018-10-19T06:44:50.120Z,98.16
2018-10-19T06:45:50.098Z,98.27
2018-10-19T06:46:50.155Z,97.86
2018-10-19T06:47:50.080Z,97.86
2018-10-19T06:49:59.313Z,97.86
2018-10-19T06:51:00.256Z,97.65
2018-10-19T06:52:00.239Z,97.44
2018-10-19T06:53:00.267Z,97.86
2018-10-19T06:54:00.211Z,97.14
2018-10-19T06:55:00.217Z,97.14
2018-10-19T06:56:00.237Z,97.75
2018-10-19T06:57:00.204Z,97.24
2018-10-19T06:58:00.193Z,97.19
2018-10-19T06:59:00.287Z,97.34
2018-10-19T07:00:00.164Z,96.72
2018-10-19T07:01:00.156Z,96.99
2018-10-19T07:02:00.173Z,96.99
2018-10-19T07:03:00.106Z,96.99
2018-10-19T07:04:00.099Z,96.58
2018-10-19T07:05:00.124Z,96.06
2018-10-19T07:06:00.114Z,96.47
2018-10-19T07:07:00.072Z,96.17
2018-10-19T07:08:00.156Z,96.53
2018-10-19T07:09:00.083Z,95.92
2018-10-19T07:10:00.054Z,95.50
2018-10-19T07:11:00.078Z,95.40
2018-10-19T07:12:00.036Z,95.30
2018-10-19T07:13:00.004Z,95.20
2018-10-19T07:13:59.990Z,94.99
2018-10-19T07:14:59.998Z,95.09
2018-10-19T07:16:00.115Z,94.58
2018-10-19T07:16:59.999Z,94.58
2018-10-19T07:17:59.952Z,94.58
2018-10-19T07:18:59.960Z,94.27
2018-10-19T07:19:59.985Z,94.37
2018-10-19T07:20:59.947Z,94.43
2018-10-19T07:21:59.905Z,94.64
2018-10-19T07:22:59.926Z,94.27
2018-10-19T07:23:59.883Z,93.92
2018-10-19T07:24:59.895Z,94.12
2018-10-19T07:25:59.936Z,93.92
2018-10-19T07:26:59.872Z,93.51
2018-10-19T07:27:59.879Z,93.20
2018-10-19T07:28:59.896Z,93.77
2018-10-19T07:29:59.824Z,92.64
2018-10-19T07:30:59.828Z,92.44
2018-10-19T07:31:59.850Z,92.64
2018-10-19T07:32:59.812Z,92.33
2018-10-19T07:33:59.773Z,92.44
2018-10-19T07:34:59.768Z,92.33
2018-10-19T07:35:59.768Z,92.40
2018-10-19T07:36:59.734Z,91.47
2018-10-19T07:37:59.763Z,91.74
2018-10-19T07:38:59.710Z,91.16
2018-10-19T07:40:00.501Z,91.02
2018-10-19T07:40:59.711Z,91.33
2018-10-19T07:41:59.677Z,90.81
2018-10-19T07:42:59.663Z,90.71
2018-10-19T07:43:59.682Z,91.02
2018-10-19T07:44:59.656Z,91.08
2018-10-19T07:45:59.677Z,90.16
2018-10-19T07:46:59.644Z,89.75
2018-10-19T07:47:59.788Z,90.05
2018-10-19T07:48:59.606Z,89.54
2018-10-19T07:49:59.622Z,89.03
2018-10-19T07:50:59.609Z,89.19
2018-10-19T07:51:59.586Z,88.27
2018-10-19T07:52:59.574Z,87.61
2018-10-19T07:53:59.557Z,86.90
2018-10-19T07:54:59.593Z,87.06
2018-10-19T07:55:59.611Z,86.81
2018-10-19T07:56:59.558Z,85.69
2018-10-19T07:57:59.518Z,85.17
2018-10-19T07:58:59.507Z,85.31
2018-10-19T07:59:59.487Z,85.69
2018-10-19T08:00:59.532Z,85.38
2018-10-19T08:01:59.520Z,84.11
2018-10-19T08:02:59.480Z,84.63
2018-10-19T08:03:59.451Z,83.81
2018-10-19T08:04:59.476Z,82.07
2018-10-19T08:05:59.435Z,83.09
2018-10-19T08:06:59.408Z,82.89
2018-10-19T08:07:59.435Z,82.48
2018-10-19T08:08:59.405Z,83.13
2018-10-19T08:09:59.405Z,83.03
2018-10-19T08:10:59.406Z,82.98
2018-10-19T08:11:59.355Z,82.78
2018-10-19T08:12:59.348Z,83.09
2018-10-19T08:13:59.362Z,82.48
2018-10-19T08:14:59.337Z,82.89
2018-10-19T08:15:59.347Z,81.62
2018-10-19T08:16:59.373Z,80.90
2018-10-19T08:17:59.288Z,81.31
2018-10-19T08:18:59.295Z,80.66
2018-10-19T08:19:59.304Z,80.05
2018-10-19T08:20:59.321Z,81.07
2018-10-19T08:21:59.236Z,81.27
2018-10-19T08:22:59.283Z,80.83
2018-10-19T08:23:59.211Z,80.11
2018-10-19T08:24:59.245Z,79.91
2018-10-19T08:25:59.292Z,80.21
2018-10-19T08:26:59.217Z,79.91
2018-10-19T08:27:59.175Z,79.87
2018-10-19T08:28:59.190Z,79.36
2018-10-19T08:29:59.181Z,78.44
2018-10-19T08:30:59.170Z,78.85
2018-10-19T08:31:59.201Z,78.75
2018-10-19T08:32:59.133Z,79.36
2018-10-19T08:33:59.120Z,79.29
2018-10-19T08:34:59.122Z,79.50
2018-10-19T08:35:59.106Z,79.19
2018-10-19T08:36:59.107Z,79.57
2018-10-19T08:37:59.113Z,79.46
2018-10-19T08:38:59.071Z,79.25
2018-10-19T08:39:59.049Z,78.85
2018-10-19T08:40:59.086Z,77.93
2018-10-19T08:41:59.063Z,79.36
2018-10-19T08:42:59.033Z,79.16
2018-10-19T08:43:59.020Z,78.71
2018-10-19T08:44:59.049Z,78.71
2018-10-19T08:45:58.977Z,79.08
2018-10-19T08:46:58.998Z,78.06
2018-10-19T08:47:58.971Z,77.86
2018-10-19T08:48:59.033Z,77.86
2018-10-19T08:52:47.575Z,77.31
2018-10-19T08:53:48.581Z,77.41
2018-10-19T08:54:48.668Z,77.62
2018-10-19T08:55:48.534Z,78.23
2018-10-19T08:56:48.511Z,77.41
2018-10-19T08:57:48.616Z,77.51
2018-10-19T08:58:48.519Z,77.68
2018-10-19T08:59:48.491Z,76.05
2018-10-19T09:00:48.493Z,76.05
2018-10-19T09:01:48.502Z,76.66
2018-10-19T09:02:48.465Z,75.85
2018-10-19T09:03:48.447Z,76.25
2018-10-19T09:04:48.474Z,76.53
2018-10-19T09:05:48.433Z,75.95
2018-10-19T09:06:48.400Z,76.12
2018-10-19T09:07:48.407Z,74.28
2018-10-19T09:08:48.404Z,74.49
2018-10-19T09:09:48.387Z,73.47
2018-10-19T09:10:48.446Z,74.49
2018-10-19T09:11:48.382Z,75.81
2018-10-19T09:12:48.414Z,74.65
2018-10-19T09:13:48.341Z,74.58
2018-10-19T09:14:48.336Z,74.28
2018-10-19T09:15:48.321Z,74.04
2018-10-19T09:16:48.331Z,73.54
2018-10-19T09:17:48.308Z,73.23
2018-10-19T09:18:48.284Z,72.82
2018-10-19T09:19:48.314Z,73.23
2018-10-19T09:20:48.248Z,73.30
2018-10-19T09:21:48.230Z,72.92
2018-10-19T09:22:48.259Z,73.30
2018-10-19T09:23:48.250Z,73.71
2018-10-19T09:24:48.209Z,72.58
2018-10-19T09:25:48.204Z,73.10
2018-10-19T09:26:48.192Z,72.96
2018-10-19T09:27:48.195Z,72.45
2018-10-19T09:28:48.201Z,73.06
2018-10-19T09:29:48.165Z,72.34
2018-10-19T09:30:48.165Z,73.23
2018-10-19T09:31:48.145Z,71.73
2018-10-19T09:32:48.157Z,72.31
2018-10-19T09:33:48.127Z,72.31
2018-10-19T09:34:48.104Z,73.13
2018-10-19T09:35:48.119Z,71.60
2018-10-19T09:36:48.309Z,72.31
2018-10-19T09:37:48.110Z,71.47
2018-10-19T09:38:48.082Z,71.36
2018-10-19T09:39:48.054Z,71.91
2018-10-19T09:40:48.088Z,71.36
2018-10-19T09:41:48.057Z,71.80
2018-10-19T09:42:48.054Z,71.80
2018-10-19T09:43:47.999Z,72.01
2018-10-19T09:44:48.013Z,70.99
2018-10-19T09:45:47.983Z,70.79
2018-10-19T09:46:47.954Z,71.09
2018-10-19T09:47:47.965Z,70.89
2018-10-19T09:48:47.978Z,70.68
2018-10-19T09:49:47.932Z,71.30
2018-10-19T09:50:47.940Z,71.47
2018-10-19T09:51:47.912Z,71.26
2018-10-19T09:52:47.894Z,71.06
2018-10-19T09:53:47.899Z,71.26
2018-10-19T09:54:47.907Z,70.55
2018-10-19T09:55:47.865Z,71.26
2018-10-19T09:56:47.845Z,70.75
2018-10-19T09:57:47.854Z,70.52
2018-10-19T09:58:47.858Z,69.81
2018-10-19T09:59:47.996Z,70.62
2018-10-19T10:00:47.811Z,70.52
2018-10-19T10:01:47.867Z,68.49
2018-10-19T10:02:47.816Z,69.20
2018-10-19T10:03:47.837Z,70.01
2018-10-19T10:04:47.777Z,70.92
2018-10-19T10:05:47.765Z,70.11
2018-10-19T10:06:47.776Z,69.33
2018-10-19T10:07:47.751Z,70.04
2018-10-19T10:08:47.759Z,70.65
2018-10-19T10:09:47.712Z,69.84
2018-10-19T10:10:47.702Z,69.60
2018-10-19T10:11:47.691Z,68.89
2018-10-19T10:12:47.702Z,69.09
2018-10-19T10:13:47.685Z,69.70
2018-10-19T10:14:47.726Z,68.79
2018-10-19T10:15:47.674Z,69.50
2018-10-19T10:16:47.653Z,70.31
2018-10-19T10:17:47.629Z,69.60
2018-10-19T10:18:47.655Z,70.52
2018-10-19T10:19:47.611Z,69.40
2018-10-19T10:20:47.621Z,69.06
2018-10-19T10:21:47.588Z,68.79
2018-10-19T10:22:47.613Z,69.20
2018-10-19T10:23:47.577Z,68.86
2018-10-19T10:24:47.639Z,68.76
2018-10-19T10:25:47.541Z,68.66
2018-10-19T10:26:47.517Z,68.76
2018-10-19T10:27:47.507Z,68.86
2018-10-19T10:28:47.533Z,68.76
2018-10-19T10:29:47.505Z,68.76
2018-10-19T10:30:47.496Z,68.62
2018-10-19T10:31:47.467Z,68.96
2018-10-19T10:32:47.454Z,68.93
2018-10-19T10:33:47.457Z,68.93
2018-10-19T10:34:47.448Z,67.98
2018-10-19T10:35:47.427Z,68.49
2018-10-19T10:36:47.429Z,67.20
2018-10-19T10:37:47.393Z,67.61
2018-10-19T10:38:47.419Z,68.83
2018-10-19T10:39:47.402Z,67.91
2018-10-19T10:40:47.387Z,68.62
2018-10-19T10:41:47.371Z,68.22
2018-10-19T10:42:47.332Z,68.52
2018-10-19T10:43:47.327Z,67.20
2018-10-19T10:44:47.340Z,67.20
2018-10-19T10:45:47.322Z,67.20
2018-10-19T10:46:47.305Z,68.66
2018-10-19T10:47:47.293Z,68.45
2018-10-19T10:48:47.278Z,67.64
2018-10-19T10:49:47.284Z,67.61
2018-10-19T10:50:47.277Z,68.01
2018-10-19T10:51:47.264Z,67.61
2018-10-19T10:55:51.592Z,68.52
2018-10-19T10:56:52.542Z,67.81
2018-10-19T10:57:52.543Z,68.42
2018-10-19T10:58:52.498Z,67.88
2018-10-19T10:59:52.522Z,67.88
2018-10-19T11:00:52.548Z,66.83
2018-10-19T11:01:52.458Z,66.53
2018-10-19T11:02:52.446Z,65.59
2018-10-19T11:03:52.488Z,65.79
2018-10-19T11:04:52.442Z,66.19
2018-10-19T11:05:52.438Z,66.46
2018-10-19T11:06:52.413Z,67.27
2018-10-19T11:07:52.392Z,68.39
2018-10-19T11:08:52.387Z,68.59
2018-10-19T11:09:52.372Z,67.47
2018-10-19T11:10:52.379Z,68.22
2018-10-19T11:11:52.381Z,68.83
2018-10-19T11:12:52.380Z,68.08
2018-10-19T11:13:52.317Z,67.58
2018-10-19T11:14:52.350Z,67.44
2018-10-19T11:15:52.319Z,67.47
2018-10-19T11:16:52.311Z,68.49
2018-10-19T11:17:52.304Z,67.85
2018-10-19T11:18:52.299Z,65.79
2018-10-19T11:19:52.278Z,67.24
2018-10-19T11:20:52.272Z,66.74
2018-10-19T11:21:52.312Z,66.70
2018-10-19T11:22:52.244Z,66.70
2018-10-19T11:23:52.224Z,66.33
2018-10-19T11:24:52.253Z,67.24
2018-10-19T11:25:52.224Z,66.94
2018-10-19T11:26:52.191Z,67.11
2018-10-19T11:27:52.173Z,66.80
2018-10-19T11:28:52.155Z,65.79
2018-10-19T11:29:52.150Z,65.89
2018-10-19T11:30:52.167Z,66.30
2018-10-19T11:31:52.136Z,66.30
2018-10-19T11:32:52.156Z,66.19
2018-10-19T11:33:52.145Z,66.60
2018-10-19T11:34:52.120Z,65.99
2018-10-19T11:35:52.109Z,66.60
2018-10-19T11:36:52.091Z,67.18
2018-10-19T11:37:52.147Z,66.03
2018-10-19T11:38:52.056Z,65.76
2018-10-19T11:39:52.055Z,65.45
2018-10-19T11:40:52.082Z,65.76
2018-10-19T11:41:52.056Z,65.69
2018-10-19T11:42:52.015Z,66.77
2018-10-19T11:43:51.999Z,67.21
2018-10-19T11:44:51.982Z,66.47
2018-10-19T11:45:51.971Z,66.77
2018-10-19T11:46:51.993Z,66.13
2018-10-19T11:47:51.963Z,65.73
2018-10-19T11:48:52.066Z,66.06
2018-10-19T11:49:51.961Z,65.42
2018-10-19T11:50:51.921Z,65.83
2018-10-19T11:51:51.932Z,65.96
2018-10-19T11:52:51.909Z,66.77
2018-10-19T11:53:51.902Z,65.62
2018-10-19T11:54:51.877Z,65.66
2018-10-19T11:55:51.877Z,66.54
2018-10-19T11:56:51.897Z,67.18
2018-10-19T11:57:51.846Z,66.94
2018-10-19T11:58:51.839Z,66.64
2018-10-19T11:59:51.832Z,65.42
2018-10-19T12:00:51.805Z,65.73
2018-10-19T12:01:51.813Z,66.54
2018-10-19T12:02:51.799Z,66.84
2018-10-19T12:03:51.805Z,66.64
2018-10-19T12:04:51.811Z,66.54
2018-10-19T12:05:51.803Z,65.93
2018-10-19T12:06:51.794Z,66.74
2018-10-19T12:07:51.752Z,66.84
2018-10-19T12:08:51.726Z,66.64
2018-10-19T12:09:51.753Z,66.44
2018-10-19T12:10:51.961Z,66.44
2018-10-19T12:11:51.727Z,65.83
2018-10-19T12:12:51.686Z,66.03
2018-10-19T12:13:51.711Z,66.61
2018-10-19T12:14:51.699Z,67.11
2018-10-19T12:15:51.662Z,67.11
2018-10-19T12:16:51.728Z,66.74
2018-10-19T12:17:51.646Z,66.71
2018-10-19T12:18:51.625Z,66.61
2018-10-19T12:19:51.659Z,66.81
2018-10-19T12:20:51.645Z,67.05
2018-10-19T12:21:51.602Z,67.25
2018-10-19T12:22:51.573Z,67.35
2018-10-19T12:23:51.587Z,66.50
2018-10-19T12:24:51.552Z,66.50
2018-10-19T12:25:51.571Z,66.81
2018-10-19T12:26:51.577Z,66.41
2018-10-19T12:27:51.512Z,66.91
2018-10-19T12:28:51.495Z,66.71
2018-10-19T12:29:51.490Z,66.71
2018-10-19T12:30:51.496Z,67.08
2018-10-19T12:31:51.495Z,65.97
2018-10-19T12:32:51.461Z,66.07
2018-10-19T12:33:51.506Z,66.27
2018-10-19T12:34:51.457Z,65.67
2018-10-19T12:35:51.447Z,66.38
2018-10-19T12:36:51.450Z,66.44
2018-10-19T12:37:51.443Z,65.43
2018-10-19T12:38:51.425Z,65.70
2018-10-19T12:39:51.379Z,65.30
2018-10-19T12:40:51.424Z,65.40
2018-10-19T12:41:51.394Z,65.10
2018-10-19T12:42:51.367Z,65.20
2018-10-19T12:43:51.334Z,65.84
2018-10-19T12:44:51.367Z,65.94
2018-10-19T12:45:51.377Z,65.33
2018-10-19T12:46:51.322Z,65.33
2018-10-19T12:47:51.309Z,65.64
2018-10-19T12:48:51.306Z,65.53
2018-10-19T12:49:51.326Z,65.53
2018-10-19T12:50:51.296Z,65.61
2018-10-19T12:51:51.276Z,64.59
2018-10-19T12:52:51.263Z,64.90
2018-10-19T12:53:51.261Z,64.39
2018-10-19T12:54:51.289Z,64.90
2018-10-19T12:57:00.489Z,64.93
2018-10-19T12:58:01.419Z,64.93
2018-10-19T12:59:01.403Z,65.13
2018-10-19T13:00:01.393Z,64.83
2018-10-19T13:01:01.456Z,64.90
2018-10-19T13:02:01.409Z,65.40
2018-10-19T13:03:01.482Z,64.29
2018-10-19T13:04:01.372Z,63.55